Time;durP1;ratioP1;P1;durP2;ratioP2;P2;SDS_P1;SDS_P2;PMS_P1;PMS_P2;Temp;Humidity;BMP_temperature;BMP_pressure;BME280_temperature;BME280_humidity;BME280_pressure;Samples;Min_cycle;Max_cycle;Signal;HPM_P1;HPM_P2
2020/12/12 00:01:40;;;;;;;31.15;19.48;;;;;;;;;;4981427;28;20050;-88
2020/12/12 00:04:06;;;;;;;28.90;18.83;;;;;;;;;;4980840;28;20486;-88
2020/12/12 00:06:37;;;;;;;32.35;19.13;;;;;;;;;;4992503;28;20050;-87
2020/12/12 00:09:06;;;;;;;31.15;19.25;;;;;;;;;;5012628;28;20056;-87
2020/12/12 00:11:32;;;;;;;27.63;17.80;;;;;;;;;;5008694;28;20046;-86
2020/12/12 00:13:59;;;;;;;30.05;17.92;;;;;;;;;;5014676;28;20042;-87
2020/12/12 00:16:25;;;;;;;25.85;17.48;;;;;;;;;;5005636;28;20054;-87
2020/12/12 00:18:51;;;;;;;27.90;17.95;;;;;;;;;;5004286;28;20050;-87
2020/12/12 00:21:21;;;;;;;29.55;18.90;;;;;;;;;;4986120;28;20061;-87
2020/12/12 00:23:48;;;;;;;32.10;18.77;;;;;;;;;;5003099;28;20058;-86
2020/12/12 00:26:18;;;;;;;31.52;19.30;;;;;;;;;;4986544;28;20046;-87
2020/12/12 00:28:44;;;;;;;26.50;18.08;;;;;;;;;;5002387;28;20054;-87
2020/12/12 00:31:10;;;;;;;27.45;18.63;;;;;;;;;;4984638;28;20081;-86
2020/12/12 00:33:36;;;;;;;29.45;19.15;;;;;;;;;;4984464;28;20054;-86
2020/12/12 00:36:02;;;;;;;31.98;20.08;;;;;;;;;;4968826;28;20047;-87
2020/12/12 00:38:28;;;;;;;30.65;18.80;;;;;;;;;;4985209;28;20482;-87
2020/12/12 00:40:58;;;;;;;31.02;19.05;;;;;;;;;;4985405;28;20054;-87
2020/12/12 00:43:25;;;;;;;30.30;19.40;;;;;;;;;;4985142;28;20062;-87
2020/12/12 00:45:51;;;;;;;31.67;19.35;;;;;;;;;;4985623;28;20050;-86
2020/12/12 00:48:17;;;;;;;33.53;19.92;;;;;;;;;;5004940;28;20053;-86
2020/12/12 00:50:45;;;;;;;31.30;19.80;;;;;;;;;;4967519;28;20054;-85
2020/12/12 00:53:11;;;;;;;29.80;18.75;;;;;;;;;;4999093;28;20379;-85
2020/12/12 00:55:37;;;;;;;37.63;21.35;;;;;;;;;;4981522;28;20046;-86
2020/12/12 00:58:03;;;;;;;33.42;20.27;;;;;;;;;;4981693;28;20046;-85
2020/12/12 01:00:32;;;;;;;31.27;18.27;;;;;;;;;;4999859;28;20054;-85
2020/12/12 01:02:59;;;;;;;34.30;21.27;;;;;;;;;;4982531;28;20050;-85
2020/12/12 01:05:25;;;;;;;32.35;20.38;;;;;;;;;;4965796;28;20086;-85
2020/12/12 01:07:51;;;;;;;34.20;21.05;;;;;;;;;;4981809;28;20057;-85
2020/12/12 01:10:17;;;;;;;30.35;19.55;;;;;;;;;;4981411;28;20283;-85
2020/12/12 01:12:43;;;;;;;29.58;18.73;;;;;;;;;;4981674;28;20081;-85
2020/12/12 01:15:10;;;;;;;34.88;20.48;;;;;;;;;;4982068;28;20765;-84
2020/12/12 01:17:36;;;;;;;32.13;20.48;;;;;;;;;;5000060;28;20053;-85
2020/12/12 01:20:02;;;;;;;33.22;20.88;;;;;;;;;;4999256;28;20490;-85
2020/12/12 01:22:28;;;;;;;30.42;19.70;;;;;;;;;;4999119;28;20526;-84
2020/12/12 01:24:54;;;;;;;33.17;20.63;;;;;;;;;;4982163;28;20057;-85
2020/12/12 01:27:20;;;;;;;31.60;19.52;;;;;;;;;;4981027;28;20054;-85
2020/12/12 01:29:46;;;;;;;32.28;19.30;;;;;;;;;;4997630;28;20053;-86
2020/12/12 01:32:13;;;;;;;29.00;18.75;;;;;;;;;;4980630;28;20046;-85
2020/12/12 01:34:39;;;;;;;32.28;19.95;;;;;;;;;;4997824;28;20047;-86
2020/12/12 01:37:05;;;;;;;33.90;20.65;;;;;;;;;;4980430;28;20422;-85
2020/12/12 01:39:31;;;;;;;30.92;19.55;;;;;;;;;;4979839;28;20487;-85
2020/12/12 01:41:58;;;;;;;30.05;18.23;;;;;;;;;;4997487;28;20050;-85
2020/12/12 01:44:24;;;;;;;32.55;18.70;;;;;;;;;;4964033;28;20081;-85
2020/12/12 01:46:50;;;;;;;29.55;18.85;;;;;;;;;;4979605;28;20158;-85
2020/12/12 01:49:17;;;;;;;29.48;18.83;;;;;;;;;;4979476;28;20050;-85
2020/12/12 01:51:43;;;;;;;29.20;19.42;;;;;;;;;;4980219;28;20046;-85
2020/12/12 01:54:09;;;;;;;28.50;18.35;;;;;;;;;;4963528;28;20085;-85
2020/12/12 01:56:36;;;;;;;29.83;18.98;;;;;;;;;;4978906;28;20414;-85
2020/12/12 01:59:02;;;;;;;29.17;18.40;;;;;;;;;;4997338;28;20050;-85
2020/12/12 02:01:30;;;;;;;29.63;17.80;;;;;;;;;;4979983;28;20053;-86
2020/12/12 02:03:57;;;;;;;29.60;18.85;;;;;;;;;;4997158;28;20042;-85
2020/12/12 02:06:23;;;;;;;31.98;18.05;;;;;;;;;;4996712;28;20111;-86
2020/12/12 02:08:51;;;;;;;30.10;19.08;;;;;;;;;;4996188;28;20058;-86
2020/12/12 02:11:18;;;;;;;29.15;18.38;;;;;;;;;;4978661;28;20053;-85
2020/12/12 02:13:46;;;;;;;31.92;18.13;;;;;;;;;;4996398;28;20054;-85
2020/12/12 02:16:13;;;;;;;31.75;19.55;;;;;;;;;;4976083;28;20050;-85
2020/12/12 02:18:39;;;;;;;32.60;19.02;;;;;;;;;;4989232;28;20050;-86
2020/12/12 02:21:06;;;;;;;29.70;18.90;;;;;;;;;;4978792;28;20560;-85
2020/12/12 02:23:33;;;;;;;26.30;17.15;;;;;;;;;;4997135;28;20101;-85
2020/12/12 02:25:59;;;;;;;31.92;18.50;;;;;;;;;;4997416;28;20042;-85
2020/12/12 02:28:28;;;;;;;29.38;18.55;;;;;;;;;;4979746;28;20390;-86
2020/12/12 02:30:54;;;;;;;33.22;20.55;;;;;;;;;;4996800;28;20129;-85
2020/12/12 02:33:20;;;;;;;30.15;19.27;;;;;;;;;;4979182;28;20047;-85
2020/12/12 02:35:47;;;;;;;31.45;19.25;;;;;;;;;;4978979;28;20050;-85
2020/12/12 02:38:13;;;;;;;32.13;19.52;;;;;;;;;;4976505;28;20058;-85
2020/12/12 02:40:40;;;;;;;27.88;17.80;;;;;;;;;;4956650;28;20049;-85
2020/12/12 02:43:10;;;;;;;29.70;18.08;;;;;;;;;;5016997;28;20048;-84
2020/12/12 02:45:36;;;;;;;31.58;18.50;;;;;;;;;;5014162;28;20082;-85
2020/12/12 02:48:03;;;;;;;31.10;17.58;;;;;;;;;;5015113;28;20550;-85
2020/12/12 02:50:29;;;;;;;32.85;20.67;;;;;;;;;;5015087;28;20042;-85
2020/12/12 02:52:55;;;;;;;33.03;19.55;;;;;;;;;;5014677;28;20156;-85
2020/12/12 02:55:21;;;;;;;30.70;18.30;;;;;;;;;;4997364;28;20061;-85
2020/12/12 02:57:48;;;;;;;29.67;18.02;;;;;;;;;;5015330;28;20046;-85
2020/12/12 03:00:17;;;;;;;30.88;18.42;;;;;;;;;;4997346;28;20532;-85
2020/12/12 03:02:42;;;;;;;33.17;19.33;;;;;;;;;;5014589;28;20058;-85
2020/12/12 03:05:08;;;;;;;31.92;18.17;;;;;;;;;;5014173;28;20046;-85
2020/12/12 03:07:35;;;;;;;26.98;17.55;;;;;;;;;;4999447;28;20046;-85
2020/12/12 03:10:05;;;;;;;28.02;18.85;;;;;;;;;;4977557;28;20086;-85
2020/12/12 03:12:31;;;;;;;30.42;17.63;;;;;;;;;;4995157;28;20046;-85
2020/12/12 03:14:57;;;;;;;30.65;18.73;;;;;;;;;;4994946;28;20050;-85
2020/12/12 03:17:24;;;;;;;34.05;19.38;;;;;;;;;;4995431;28;20046;-85
2020/12/12 03:19:50;;;;;;;26.50;17.55;;;;;;;;;;4977501;28;20042;-85
2020/12/12 03:22:16;;;;;;;33.53;18.58;;;;;;;;;;4977744;28;20505;-85
2020/12/12 03:24:42;;;;;;;29.05;19.08;;;;;;;;;;4994161;28;20078;-85
2020/12/12 03:27:08;;;;;;;28.15;17.95;;;;;;;;;;4977511;28;20487;-85
2020/12/12 03:29:37;;;;;;;30.33;19.13;;;;;;;;;;4961216;28;20077;-85
2020/12/12 03:32:05;;;;;;;31.40;18.85;;;;;;;;;;4994481;28;20057;-85
2020/12/12 03:34:31;;;;;;;30.80;19.25;;;;;;;;;;4994998;28;20057;-84
2020/12/12 03:36:57;;;;;;;32.28;20.88;;;;;;;;;;4977325;28;20038;-85
2020/12/12 03:39:23;;;;;;;33.67;21.48;;;;;;;;;;4977423;28;20493;-84
2020/12/12 03:41:49;;;;;;;35.03;21.30;;;;;;;;;;4976954;28;20383;-85
2020/12/12 03:44:15;;;;;;;36.40;21.60;;;;;;;;;;4994041;28;20475;-85
2020/12/12 03:46:41;;;;;;;29.13;18.67;;;;;;;;;;4977555;28;20046;-85
2020/12/12 03:49:08;;;;;;;31.33;19.30;;;;;;;;;;4986089;28;20230;-85
2020/12/12 03:51:34;;;;;;;29.70;18.27;;;;;;;;;;4995033;28;20042;-85
2020/12/12 03:54:00;;;;;;;32.22;19.52;;;;;;;;;;4994463;28;20046;-84
2020/12/12 03:56:26;;;;;;;29.23;18.60;;;;;;;;;;4977331;28;20045;-85
2020/12/12 03:58:52;;;;;;;24.80;17.10;;;;;;;;;;4994514;28;20046;-85
2020/12/12 04:01:18;;;;;;;30.48;18.90;;;;;;;;;;4977445;28;20054;-85
2020/12/12 04:03:44;;;;;;;28.58;18.30;;;;;;;;;;4993870;28;20057;-85
2020/12/12 04:06:11;;;;;;;31.90;19.13;;;;;;;;;;4994540;28;20050;-85
2020/12/12 04:08:37;;;;;;;30.50;19.65;;;;;;;;;;4994181;28;20049;-85
2020/12/12 04:11:03;;;;;;;31.92;18.83;;;;;;;;;;4976970;28;20368;-85
2020/12/12 04:13:30;;;;;;;32.70;19.27;;;;;;;;;;4994833;28;20042;-85
2020/12/12 04:15:56;;;;;;;31.23;19.98;;;;;;;;;;4993852;28;20047;-85
2020/12/12 04:18:22;;;;;;;33.15;19.35;;;;;;;;;;4995546;28;20050;-85
2020/12/12 04:20:48;;;;;;;33.90;20.08;;;;;;;;;;4977357;28;20075;-85
2020/12/12 04:23:16;;;;;;;46.22;24.27;;;;;;;;;;4978665;28;20535;-85
2020/12/12 04:25:41;;;;;;;34.08;21.35;;;;;;;;;;4978632;28;20046;-85
2020/12/12 04:28:07;;;;;;;36.65;21.30;;;;;;;;;;4978762;28;20113;-84
2020/12/12 04:30:34;;;;;;;34.30;18.58;;;;;;;;;;4960520;28;20050;-86
2020/12/12 04:33:00;;;;;;;30.70;19.23;;;;;;;;;;4960271;28;20047;-86
2020/12/12 04:35:26;;;;;;;34.38;20.52;;;;;;;;;;4976391;28;20074;-86
2020/12/12 04:37:52;;;;;;;33.05;20.30;;;;;;;;;;4976653;28;20089;-86
2020/12/12 04:40:19;;;;;;;35.95;21.13;;;;;;;;;;4977254;28;20054;-86
2020/12/12 04:42:47;;;;;;;47.25;26.00;;;;;;;;;;4977889;28;20042;-85
2020/12/12 04:45:13;;;;;;;52.97;27.02;;;;;;;;;;4960180;28;20483;-85
2020/12/12 04:47:43;;;;;;;34.92;21.27;;;;;;;;;;4977357;28;20130;-85
2020/12/12 04:50:09;;;;;;;31.67;19.45;;;;;;;;;;4962186;28;20127;-85
2020/12/12 04:52:41;;;;;;;30.63;18.40;;;;;;;;;;4996686;28;20046;-86
2020/12/12 04:55:07;;;;;;;30.05;18.17;;;;;;;;;;4980214;28;20046;-85
2020/12/12 04:57:35;;;;;;;31.25;19.30;;;;;;;;;;4980090;28;20375;-86
2020/12/12 05:00:06;;;;;;;33.22;19.23;;;;;;;;;;4997073;28;20046;-86
2020/12/12 05:02:32;;;;;;;28.27;17.88;;;;;;;;;;4996750;28;20042;-85
2020/12/12 05:04:58;;;;;;;28.55;17.27;;;;;;;;;;4996445;28;20050;-86
2020/12/12 05:07:24;;;;;;;27.90;17.27;;;;;;;;;;4979715;28;20053;-85
2020/12/12 05:09:50;;;;;;;32.63;18.80;;;;;;;;;;4997549;28;20042;-86
2020/12/12 05:12:17;;;;;;;30.33;17.92;;;;;;;;;;4980381;28;20057;-85
2020/12/12 05:14:48;;;;;;;27.45;17.48;;;;;;;;;;4964025;28;20132;-85
2020/12/12 05:17:14;;;;;;;28.98;17.90;;;;;;;;;;4979830;28;20070;-85
2020/12/12 05:19:40;;;;;;;28.50;17.17;;;;;;;;;;4996305;28;20060;-85
2020/12/12 05:22:06;;;;;;;27.15;16.63;;;;;;;;;;4979957;28;20053;-86
2020/12/12 05:24:33;;;;;;;33.35;19.00;;;;;;;;;;4979998;28;20042;-85
2020/12/12 05:27:00;;;;;;;28.15;17.58;;;;;;;;;;4996522;28;20046;-85
2020/12/12 05:29:26;;;;;;;32.67;17.83;;;;;;;;;;4995949;28;20047;-85
2020/12/12 05:31:56;;;;;;;28.25;18.08;;;;;;;;;;4996538;28;20042;-85
2020/12/12 05:34:22;;;;;;;32.97;17.83;;;;;;;;;;4997113;28;20053;-86
2020/12/12 05:36:48;;;;;;;33.10;19.33;;;;;;;;;;4996770;28;20057;-86
2020/12/12 05:39:15;;;;;;;31.52;18.67;;;;;;;;;;4997102;28;20046;-85
2020/12/12 05:41:42;;;;;;;33.60;20.10;;;;;;;;;;4960118;28;20042;-85
2020/12/12 05:44:08;;;;;;;29.98;18.98;;;;;;;;;;4989002;28;20422;-85
2020/12/12 05:46:34;;;;;;;34.10;19.90;;;;;;;;;;4996107;28;20050;-86
2020/12/12 05:49:02;;;;;;;34.00;19.88;;;;;;;;;;4996618;28;20045;-86
2020/12/12 05:51:28;;;;;;;34.47;20.65;;;;;;;;;;4995914;28;20046;-86
2020/12/12 05:53:55;;;;;;;37.90;23.95;;;;;;;;;;4977143;28;20481;-86
2020/12/12 05:56:22;;;;;;;33.15;21.23;;;;;;;;;;4996313;28;20053;-85
2020/12/12 05:58:49;;;;;;;34.10;20.73;;;;;;;;;;4995503;28;20042;-86
2020/12/12 06:01:18;;;;;;;25.98;17.08;;;;;;;;;;4990768;28;20054;-85
2020/12/12 06:03:55;;;;;;;34.83;20.35;;;;;;;;;;4976699;28;20057;-86
2020/12/12 06:06:23;;;;;;;33.15;19.48;;;;;;;;;;4976929;28;20062;-86
2020/12/12 06:09:14;;;;;;;40.33;22.42;;;;;;;;;;4977001;28;20043;-85
2020/12/12 06:11:42;;;;;;;35.92;21.85;;;;;;;;;;4950189;28;20043;-85
2020/12/12 06:14:08;;;;;;;30.05;18.75;;;;;;;;;;4985853;28;20054;-85
2020/12/12 06:16:35;;;;;;;34.63;20.35;;;;;;;;;;4996944;28;20050;-85
2020/12/12 06:19:09;;;;;;;37.28;21.75;;;;;;;;;;4996844;28;20049;-85
2020/12/12 06:21:37;;;;;;;36.65;22.60;;;;;;;;;;4996299;28;20162;-85
2020/12/12 06:24:07;;;;;;;32.92;20.00;;;;;;;;;;4996279;28;20386;-85
2020/12/12 06:26:53;;;;;;;31.90;19.23;;;;;;;;;;4996464;28;20042;-85
2020/12/12 06:29:20;;;;;;;27.00;17.15;;;;;;;;;;4961857;28;20439;-85
2020/12/12 06:31:46;;;;;;;30.63;19.13;;;;;;;;;;4977420;28;20039;-85
2020/12/12 06:34:13;;;;;;;33.00;19.67;;;;;;;;;;4987254;28;20517;-85
2020/12/12 06:36:46;;;;;;;31.30;19.20;;;;;;;;;;4995741;28;20061;-85
2020/12/12 06:39:21;;;;;;;29.42;18.23;;;;;;;;;;4996444;28;20058;-85
2020/12/12 06:41:48;;;;;;;30.58;18.55;;;;;;;;;;4991798;28;20039;-85
2020/12/12 06:44:30;;;;;;;35.53;19.83;;;;;;;;;;4994802;28;20058;-84
2020/12/12 06:46:56;;;;;;;32.75;19.75;;;;;;;;;;4994714;28;20057;-84
2020/12/12 06:49:22;;;;;;;30.77;19.38;;;;;;;;;;4977583;28;20047;-84
2020/12/12 06:51:49;;;;;;;31.15;19.65;;;;;;;;;;4995447;28;20050;-84
2020/12/12 06:54:15;;;;;;;32.38;18.27;;;;;;;;;;4997029;28;20053;-83
2020/12/12 06:56:41;;;;;;;30.42;18.45;;;;;;;;;;4996713;28;20143;-84
2020/12/12 06:59:31;;;;;;;29.33;18.80;;;;;;;;;;4996988;28;20103;-84
2020/12/12 07:01:59;;;;;;;29.45;18.55;;;;;;;;;;4984744;28;20057;-84
2020/12/12 07:04:27;;;;;;;32.00;19.10;;;;;;;;;;4996397;28;20042;-84
2020/12/12 07:07:04;;;;;;;29.13;17.58;;;;;;;;;;4979271;28;20081;-83
2020/12/12 07:09:30;;;;;;;32.97;19.15;;;;;;;;;;4996505;28;20105;-84
2020/12/12 07:11:57;;;;;;;32.63;20.75;;;;;;;;;;4978886;28;20038;-84
2020/12/12 07:14:24;;;;;;;31.23;17.23;;;;;;;;;;4995146;28;20073;-84
2020/12/12 07:16:52;;;;;;;28.92;17.98;;;;;;;;;;4977634;28;20479;-84
2020/12/12 07:19:28;;;;;;;33.22;20.63;;;;;;;;;;4995135;28;20135;-84
2020/12/12 07:21:54;;;;;;;29.63;17.42;;;;;;;;;;4977726;28;20100;-84
2020/12/12 07:24:21;;;;;;;31.73;18.27;;;;;;;;;;4961343;28;20046;-84
2020/12/12 07:26:47;;;;;;;25.98;15.55;;;;;;;;;;4977614;28;20054;-84
2020/12/12 07:29:13;;;;;;;30.27;17.05;;;;;;;;;;4961438;28;20122;-84
2020/12/12 07:31:39;;;;;;;28.15;18.02;;;;;;;;;;4977283;28;20087;-83
2020/12/12 07:34:05;;;;;;;31.40;19.25;;;;;;;;;;4977299;28;20046;-83
2020/12/12 07:36:32;;;;;;;27.48;16.92;;;;;;;;;;4994718;28;20046;-82
2020/12/12 07:38:58;;;;;;;27.75;17.70;;;;;;;;;;4994452;28;20058;-85
2020/12/12 07:41:25;;;;;;;26.20;16.48;;;;;;;;;;4977795;28;20049;-85
2020/12/12 07:43:52;;;;;;;32.53;19.08;;;;;;;;;;5005822;28;20037;-85
2020/12/12 07:46:18;;;;;;;35.53;21.52;;;;;;;;;;5004687;28;20046;-84
2020/12/12 07:48:45;;;;;;;31.25;19.42;;;;;;;;;;4977692;28;20069;-86
2020/12/12 07:51:14;;;;;;;35.45;22.00;;;;;;;;;;4978020;28;20043;-85
2020/12/12 07:53:40;;;;;;;34.67;21.00;;;;;;;;;;4997381;28;20039;-84
2020/12/12 07:56:07;;;;;;;39.88;25.05;;;;;;;;;;4998091;28;20078;-85
2020/12/12 07:58:36;;;;;;;45.85;25.83;;;;;;;;;;4998113;28;20097;-83
2020/12/12 08:01:04;;;;;;;51.47;27.38;;;;;;;;;;4997943;28;20046;-81
2020/12/12 08:03:31;;;;;;;55.83;31.10;;;;;;;;;;4998816;28;20042;-83
2020/12/12 08:06:04;;;;;;;82.00;36.90;;;;;;;;;;4997746;28;20051;-83
2020/12/12 08:08:30;;;;;;;65.18;35.05;;;;;;;;;;4997991;28;20371;-83
2020/12/12 08:10:58;;;;;;;52.78;26.95;;;;;;;;;;5010668;28;20841;-85
2020/12/12 08:13:24;;;;;;;31.73;19.65;;;;;;;;;;4996790;28;20046;-85
2020/12/12 08:16:00;;;;;;;30.13;19.67;;;;;;;;;;4994151;28;20054;-85
2020/12/12 08:18:26;;;;;;;47.72;26.58;;;;;;;;;;5006730;28;20386;-85
2020/12/12 08:20:52;;;;;;;41.83;23.13;;;;;;;;;;4980389;28;20138;-85
2020/12/12 08:23:19;;;;;;;46.00;25.98;;;;;;;;;;4968003;28;20052;-86
2020/12/12 08:25:46;;;;;;;32.60;20.40;;;;;;;;;;5016862;28;20042;-85
2020/12/12 08:28:13;;;;;;;39.67;22.63;;;;;;;;;;4961265;28;20109;-84
2020/12/12 08:30:39;;;;;;;38.65;23.25;;;;;;;;;;4969732;28;20148;-86
2020/12/12 08:33:09;;;;;;;34.42;21.10;;;;;;;;;;5001243;28;20042;-85
2020/12/12 08:35:36;;;;;;;37.60;23.73;;;;;;;;;;5019785;28;20042;-85
2020/12/12 08:38:04;;;;;;;43.75;24.60;;;;;;;;;;4990502;28;20066;-85
2020/12/12 08:40:31;;;;;;;44.38;26.73;;;;;;;;;;4997294;28;20046;-84
2020/12/12 08:43:00;;;;;;;40.65;24.92;;;;;;;;;;4998022;28;20062;-84
2020/12/12 08:45:28;;;;;;;58.65;32.58;;;;;;;;;;4998620;28;20054;-83
2020/12/12 08:48:09;;;;;;;37.20;23.17;;;;;;;;;;4981096;28;20057;-84
2020/12/12 08:50:49;;;;;;;39.20;24.02;;;;;;;;;;4997908;28;20038;-86
2020/12/12 08:53:23;;;;;;;31.33;20.27;;;;;;;;;;4998500;28;20042;-84
2020/12/12 08:56:04;;;;;;;32.22;19.70;;;;;;;;;;4998923;28;20054;-84
2020/12/12 08:58:39;;;;;;;30.42;18.75;;;;;;;;;;4990354;28;20367;-84
2020/12/12 09:01:33;;;;;;;34.38;22.48;;;;;;;;;;4998786;28;20042;-85
2020/12/12 09:04:06;;;;;;;30.77;21.60;;;;;;;;;;5001618;28;20054;-85
2020/12/12 09:06:34;;;;;;;32.22;20.17;;;;;;;;;;4997169;28;20054;-85
2020/12/12 09:09:11;;;;;;;29.30;18.77;;;;;;;;;;4979090;28;20070;-85
2020/12/12 09:11:38;;;;;;;29.05;19.50;;;;;;;;;;4997241;28;20378;-83
2020/12/12 09:14:04;;;;;;;22.77;15.73;;;;;;;;;;4979636;28;20096;-82
2020/12/12 09:16:30;;;;;;;29.35;18.35;;;;;;;;;;4996802;28;20486;-85
2020/12/12 09:18:57;;;;;;;28.98;19.55;;;;;;;;;;4979437;28;20053;-86
2020/12/12 09:21:24;;;;;;;24.92;16.55;;;;;;;;;;4976500;28;20479;-85
2020/12/12 09:23:50;;;;;;;24.52;16.83;;;;;;;;;;4959795;28;20486;-85
2020/12/12 09:26:18;;;;;;;25.05;17.23;;;;;;;;;;4959266;28;20094;-84
2020/12/12 09:28:44;;;;;;;27.85;18.05;;;;;;;;;;4976800;28;20411;-85
2020/12/12 09:31:11;;;;;;;28.63;18.75;;;;;;;;;;4944127;28;20077;-84
2020/12/12 09:33:39;;;;;;;25.17;16.10;;;;;;;;;;4960465;28;20054;-85
2020/12/12 09:36:05;;;;;;;22.00;15.00;;;;;;;;;;4967161;28;20057;-84
2020/12/12 09:38:32;;;;;;;20.63;15.00;;;;;;;;;;4996430;28;20046;-86
2020/12/12 09:40:59;;;;;;;25.10;15.85;;;;;;;;;;4978532;28;20061;-85
2020/12/12 09:43:25;;;;;;;21.00;13.70;;;;;;;;;;4996030;28;20123;-86
2020/12/12 09:45:52;;;;;;;21.67;14.35;;;;;;;;;;4978139;28;20046;-86
2020/12/12 09:48:18;;;;;;;24.80;14.65;;;;;;;;;;4978050;28;20050;-86
2020/12/12 09:50:44;;;;;;;30.38;17.25;;;;;;;;;;4994738;28;20478;-86
2020/12/12 09:53:10;;;;;;;24.90;15.32;;;;;;;;;;4994563;28;20089;-86
2020/12/12 09:55:39;;;;;;;26.00;16.13;;;;;;;;;;4962150;28;20081;-86
2020/12/12 09:58:06;;;;;;;26.00;15.52;;;;;;;;;;4978122;28;20038;-86
2020/12/12 10:00:33;;;;;;;22.15;14.15;;;;;;;;;;4978442;28;20394;-86
2020/12/12 10:02:59;;;;;;;26.88;17.33;;;;;;;;;;4994721;28;20046;-86
2020/12/12 10:05:25;;;;;;;26.20;15.77;;;;;;;;;;4961582;28;20086;-85
2020/12/12 10:07:54;;;;;;;21.80;14.32;;;;;;;;;;4977231;28;20046;-86
2020/12/12 10:10:20;;;;;;;26.20;15.32;;;;;;;;;;4994688;28;20474;-85
2020/12/12 10:12:47;;;;;;;22.83;15.32;;;;;;;;;;4977564;28;20046;-85
2020/12/12 10:15:13;;;;;;;21.30;14.93;;;;;;;;;;4994420;28;20050;-86
2020/12/12 10:17:39;;;;;;;25.58;14.98;;;;;;;;;;4994390;28;20101;-85
2020/12/12 10:20:05;;;;;;;24.75;15.57;;;;;;;;;;4977551;28;20046;-85
2020/12/12 10:22:31;;;;;;;20.17;13.95;;;;;;;;;;4994590;28;20050;-85
2020/12/12 10:24:57;;;;;;;21.38;14.80;;;;;;;;;;4994182;28;20049;-85
2020/12/12 10:27:23;;;;;;;25.67;15.77;;;;;;;;;;4994832;28;20418;-85
2020/12/12 10:29:50;;;;;;;25.67;14.52;;;;;;;;;;4994945;28;20129;-84
2020/12/12 10:32:16;;;;;;;23.27;14.90;;;;;;;;;;4961295;28;20457;-85
2020/12/12 10:34:42;;;;;;;22.63;14.82;;;;;;;;;;4977418;28;20042;-85
2020/12/12 10:37:08;;;;;;;24.88;14.95;;;;;;;;;;4969351;28;20046;-85
2020/12/12 10:39:40;;;;;;;25.40;16.55;;;;;;;;;;4977319;28;20043;-85
2020/12/12 10:42:06;;;;;;;24.80;14.45;;;;;;;;;;4977736;28;20042;-85
2020/12/12 10:44:32;;;;;;;27.73;15.77;;;;;;;;;;4993938;28;20050;-84
2020/12/12 10:46:59;;;;;;;22.02;15.68;;;;;;;;;;4977142;28;20056;-85
2020/12/12 10:49:25;;;;;;;23.55;16.35;;;;;;;;;;4994582;28;20046;-84
2020/12/12 10:51:53;;;;;;;22.65;15.18;;;;;;;;;;4977333;28;20390;-84
2020/12/12 10:54:20;;;;;;;25.00;15.20;;;;;;;;;;4994435;28;20042;-84
2020/12/12 10:56:47;;;;;;;23.52;15.75;;;;;;;;;;4994138;28;20103;-84
2020/12/12 10:59:16;;;;;;;23.17;15.32;;;;;;;;;;4994520;28;20042;-84
2020/12/12 11:01:42;;;;;;;24.30;16.25;;;;;;;;;;4994154;28;20050;-85
2020/12/12 11:04:09;;;;;;;24.45;15.90;;;;;;;;;;5013177;28;20100;-85
2020/12/12 11:06:35;;;;;;;23.17;15.75;;;;;;;;;;5013486;28;20053;-84
2020/12/12 11:09:02;;;;;;;21.35;14.85;;;;;;;;;;5010295;28;20042;-85
2020/12/12 11:11:28;;;;;;;22.25;14.80;;;;;;;;;;4994330;28;20038;-85
2020/12/12 11:13:54;;;;;;;22.98;13.65;;;;;;;;;;4976860;28;20054;-84
2020/12/12 11:16:21;;;;;;;22.50;14.13;;;;;;;;;;4961043;28;20043;-84
2020/12/12 11:18:48;;;;;;;19.40;14.15;;;;;;;;;;4986253;28;20049;-85
2020/12/12 11:21:19;;;;;;;22.85;15.00;;;;;;;;;;5014068;28;20145;-84
2020/12/12 11:23:45;;;;;;;19.05;13.77;;;;;;;;;;4975000;28;20077;-85
2020/12/12 11:26:12;;;;;;;23.00;14.43;;;;;;;;;;4977913;28;20471;-85
2020/12/12 11:28:38;;;;;;;22.98;14.75;;;;;;;;;;4983180;28;20101;-85
2020/12/12 11:31:04;;;;;;;21.25;14.15;;;;;;;;;;4982422;28;20084;-85
2020/12/12 11:33:30;;;;;;;19.77;13.23;;;;;;;;;;5017194;28;20046;-84
2020/12/12 11:36:07;;;;;;;20.02;13.73;;;;;;;;;;4999384;28;20058;-85
2020/12/12 11:38:40;;;;;;;19.35;13.45;;;;;;;;;;4989214;28;20125;-85
2020/12/12 11:41:17;;;;;;;20.67;12.55;;;;;;;;;;4997675;28;20044;-85
2020/12/12 11:46:38;;;;;;;24.80;12.93;;;;;;;;;;4927483;29;20042;-85
2020/12/12 11:49:04;;;;;;;17.27;11.85;;;;;;;;;;4946880;28;20553;-87
2020/12/12 11:51:35;;;;;;;17.77;12.73;;;;;;;;;;4978176;28;20043;-85
2020/12/12 11:54:02;;;;;;;18.75;11.52;;;;;;;;;;4978229;28;20047;-87
2020/12/12 11:56:28;;;;;;;20.70;13.32;;;;;;;;;;4961073;28;20069;-83
2020/12/12 11:58:54;;;;;;;16.17;12.38;;;;;;;;;;4997333;28;20514;-85
2020/12/12 12:01:21;;;;;;;19.60;13.48;;;;;;;;;;4990022;28;20116;-85
2020/12/12 12:03:48;;;;;;;15.73;10.57;;;;;;;;;;4991510;28;20049;-86
2020/12/12 12:06:14;;;;;;;14.80;10.57;;;;;;;;;;5006396;28;20053;-85
2020/12/12 12:08:47;;;;;;;14.40;9.27;;;;;;;;;;4999616;28;20050;-85
2020/12/12 12:11:19;;;;;;;14.82;10.43;;;;;;;;;;4990358;28;20046;-85
2020/12/12 12:13:45;;;;;;;14.95;9.80;;;;;;;;;;4982997;28;20137;-85
2020/12/12 12:16:17;;;;;;;16.48;10.27;;;;;;;;;;4998417;28;20042;-85
2020/12/12 12:18:43;;;;;;;15.57;10.77;;;;;;;;;;4999769;28;20045;-85
2020/12/12 12:21:09;;;;;;;14.55;9.35;;;;;;;;;;4984361;28;20061;-84
2020/12/12 12:23:35;;;;;;;15.73;9.68;;;;;;;;;;4979474;28;20050;-85
2020/12/12 12:26:02;;;;;;;14.10;10.35;;;;;;;;;;4979675;28;20414;-86
2020/12/12 12:28:28;;;;;;;13.45;9.60;;;;;;;;;;4963410;28;20054;-86
2020/12/12 12:30:55;;;;;;;11.88;7.63;;;;;;;;;;4996925;28;20038;-86
2020/12/12 12:33:21;;;;;;;12.30;8.27;;;;;;;;;;4963669;28;20062;-85
2020/12/12 12:35:47;;;;;;;10.20;7.78;;;;;;;;;;4975669;28;20050;-85
2020/12/12 12:38:12;;;;;;;11.63;7.57;;;;;;;;;;4996471;28;20053;-86
2020/12/12 12:40:39;;;;;;;13.38;7.50;;;;;;;;;;4989049;28;20556;-86
2020/12/12 12:43:05;;;;;;;10.73;7.57;;;;;;;;;;5016775;28;20046;-86
2020/12/12 12:45:31;;;;;;;10.07;6.65;;;;;;;;;;5001312;28;20049;-86
2020/12/12 12:47:57;;;;;;;9.07;6.78;;;;;;;;;;4998756;28;20053;-86
2020/12/12 12:50:34;;;;;;;12.13;7.72;;;;;;;;;;4986467;28;20394;-86
2020/12/12 12:53:00;;;;;;;;;;;;;;;;;;4997862;28;20470;-87
2020/12/12 12:55:26;;;;;;;13.80;9.50;;;;;;;;;;4996650;28;19928;-86
2020/12/12 12:57:52;;;;;;;15.02;9.85;;;;;;;;;;4996925;28;20042;-86
2020/12/12 13:00:18;;;;;;;14.80;9.52;;;;;;;;;;4996482;28;20073;-86
2020/12/12 13:02:45;;;;;;;15.63;10.68;;;;;;;;;;5004652;28;20052;-86
2020/12/12 13:05:11;;;;;;;13.13;8.30;;;;;;;;;;4961080;28;20050;-86
2020/12/12 13:07:37;;;;;;;14.93;9.00;;;;;;;;;;4992060;28;20045;-86
2020/12/12 13:10:06;;;;;;;15.40;10.35;;;;;;;;;;4999391;28;20378;-86
2020/12/12 13:12:32;;;;;;;12.05;9.00;;;;;;;;;;5015889;28;20042;-86
2020/12/12 13:14:58;;;;;;;12.38;8.93;;;;;;;;;;4999087;28;20046;-86
2020/12/12 13:17:24;;;;;;;11.93;7.97;;;;;;;;;;4999257;28;20046;-86
2020/12/12 13:19:55;;;;;;;12.80;8.27;;;;;;;;;;4998696;28;20462;-86
2020/12/12 13:22:21;;;;;;;14.20;9.23;;;;;;;;;;4998577;28;20046;-86
2020/12/12 13:24:47;;;;;;;16.58;12.75;;;;;;;;;;4987815;28;20050;-87
2020/12/12 13:27:13;;;;;;;12.32;9.77;;;;;;;;;;4994266;28;20053;-86
2020/12/12 13:32:24;;;;;;;14.23;10.40;;;;;;;;;;4995982;28;20065;-86
2020/12/12 13:34:51;;;;;;;23.80;21.38;;;;;;;;;;5004659;28;20763;-85
2020/12/12 13:37:17;;;;;;;14.52;11.73;;;;;;;;;;5016269;28;20066;-86
2020/12/12 13:39:46;;;;;;;15.05;9.80;;;;;;;;;;5015252;28;20394;-86
2020/12/12 13:42:12;;;;;;;20.13;15.38;;;;;;;;;;5014473;28;20053;-84
2020/12/12 13:44:40;;;;;;;16.38;12.95;;;;;;;;;;4996083;28;20047;-85
2020/12/12 13:47:06;;;;;;;14.05;9.90;;;;;;;;;;4978628;28;20039;-86
2020/12/12 13:49:32;;;;;;;15.40;8.98;;;;;;;;;;4995996;28;20077;-86
2020/12/12 13:51:59;;;;;;;13.35;10.13;;;;;;;;;;4978204;28;20590;-87
2020/12/12 13:54:28;;;;;;;12.30;8.70;;;;;;;;;;4963165;28;20057;-86
2020/12/12 13:56:54;;;;;;;13.05;8.43;;;;;;;;;;4978627;28;20057;-87
2020/12/12 13:59:20;;;;;;;11.80;8.70;;;;;;;;;;4996615;28;20454;-85
2020/12/12 14:01:49;;;;;;;12.73;8.98;;;;;;;;;;4996598;28;20042;-85
2020/12/12 14:04:15;;;;;;;15.60;9.80;;;;;;;;;;4978344;28;20057;-85
2020/12/12 14:06:47;;;;;;;14.63;11.55;;;;;;;;;;4997155;28;20049;-86
2020/12/12 14:22:57;;;;;;;15.40;10.85;;;;;;;;;;5014902;28;20046;-86
2020/12/12 14:25:24;;;;;;;14.13;10.85;;;;;;;;;;5015066;28;20052;-85
2020/12/12 14:30:38;;;;;;;12.50;8.00;;;;;;;;;;4995321;28;20397;-85
2020/12/12 14:33:04;;;;;;;11.63;8.60;;;;;;;;;;4994397;28;20125;-84
2020/12/12 14:35:30;;;;;;;23.05;20.80;;;;;;;;;;4978372;28;20081;-84
2020/12/12 14:37:56;;;;;;;17.13;14.90;;;;;;;;;;4996065;28;20547;-84
2020/12/12 14:40:22;;;;;;;15.55;11.65;;;;;;;;;;4995434;28;20101;-84
2020/12/12 14:42:49;;;;;;;13.18;10.88;;;;;;;;;;4994372;28;20086;-84